Terminal Aerodrome Forecast
Issued by NWS

Home | Current Version | Previous Version | Graphics & Text | Print | Product List | Glossary On
Versions: 1 2 3 4 5 6 7 8 9 10 11 12 13 14 15 16
000
FTUS43 KICT 011140
TAFCNU
TAF
KCNU 011140Z 0112/0212 13007KT P6SM SCT100 BKN250
      TEMPO 0112/0114 4SM BR
     FM011400 15006KT P6SM SCT008 BKN012
     FM011600 17014KT P6SM SCT015
     FM011800 17021G30KT P6SM SCT040
     FM020300 17018G28KT P6SM BKN025
     FM020600 17018G28KT P6SM VCTS BKN060CB=

USA.gov is the U.S. government's official web portal to all federal, state and local government web resources and services.